sensor_id;sensor_type;location;lat;lon;timestamp;P1;durP1;ratioP1;P2;durP2;ratioP2
44272;SDS011;29964;17.182;-96.766;2023-04-26T00:01:17;7.13;;;1.70;;
44272;SDS011;29964;17.182;-96.766;2023-04-26T00:03:44;8.05;;;2.10;;
44272;SDS011;29964;17.182;-96.766;2023-04-26T00:06:11;1.75;;;1.10;;
44272;SDS011;29964;17.182;-96.766;2023-04-26T00:08:39;2.40;;;1.60;;
44272;SDS011;29964;17.182;-96.766;2023-04-26T00:11:07;1.95;;;1.30;;
44272;SDS011;29964;17.182;-96.766;2023-04-26T00:13:34;1.98;;;1.42;;
44272;SDS011;29964;17.182;-96.766;2023-04-26T00:16:03;7.25;;;2.20;;
44272;SDS011;29964;17.182;-96.766;2023-04-26T00:18:30;2.90;;;1.90;;
44272;SDS011;29964;17.182;-96.766;2023-04-26T00:20:57;2.67;;;1.73;;
44272;SDS011;29964;17.182;-96.766;2023-04-26T00:23:24;1.60;;;1.25;;
44272;SDS011;29964;17.182;-96.766;2023-04-26T00:25:50;1.92;;;1.10;;
44272;SDS011;29964;17.182;-96.766;2023-04-26T00:28:17;5.15;;;1.60;;
44272;SDS011;29964;17.182;-96.766;2023-04-26T00:30:44;14.75;;;1.92;;
44272;SDS011;29964;17.182;-96.766;2023-04-26T00:33:13;2.58;;;1.67;;
44272;SDS011;29964;17.182;-96.766;2023-04-26T00:35:40;6.80;;;2.50;;
44272;SDS011;29964;17.182;-96.766;2023-04-26T00:38:07;1.73;;;1.40;;
44272;SDS011;29964;17.182;-96.766;2023-04-26T00:40:33;3.17;;;1.67;;
44272;SDS011;29964;17.182;-96.766;2023-04-26T00:43:01;4.03;;;2.03;;
44272;SDS011;29964;17.182;-96.766;2023-04-26T00:45:28;4.35;;;2.35;;
44272;SDS011;29964;17.182;-96.766;2023-04-26T00:47:55;2.05;;;1.52;;
44272;SDS011;29964;17.182;-96.766;2023-04-26T00:50:22;11.25;;;2.20;;
44272;SDS011;29964;17.182;-96.766;2023-04-26T00:52:49;1.40;;;1.15;;
44272;SDS011;29964;17.182;-96.766;2023-04-26T00:55:20;3.42;;;2.10;;
44272;SDS011;29964;17.182;-96.766;2023-04-26T00:57:47;2.45;;;1.75;;
44272;SDS011;29964;17.182;-96.766;2023-04-26T01:00:14;3.63;;;1.80;;
44272;SDS011;29964;17.182;-96.766;2023-04-26T01:02:41;2.20;;;1.48;;
44272;SDS011;29964;17.182;-96.766;2023-04-26T01:05:08;4.07;;;1.85;;
44272;SDS011;29964;17.182;-96.766;2023-04-26T01:07:35;2.15;;;1.35;;
44272;SDS011;29964;17.182;-96.766;2023-04-26T01:10:03;2.22;;;1.50;;
44272;SDS011;29964;17.182;-96.766;2023-04-26T01:12:31;8.98;;;1.50;;
44272;SDS011;29964;17.182;-96.766;2023-04-26T01:15:00;3.78;;;1.98;;
44272;SDS011;29964;17.182;-96.766;2023-04-26T01:17:28;1.90;;;1.48;;
44272;SDS011;29964;17.182;-96.766;2023-04-26T01:19:55;17.98;;;2.20;;
44272;SDS011;29964;17.182;-96.766;2023-04-26T01:22:22;1.77;;;1.20;;
44272;SDS011;29964;17.182;-96.766;2023-04-26T01:24:49;5.38;;;1.92;;
44272;SDS011;29964;17.182;-96.766;2023-04-26T01:27:16;6.53;;;1.80;;
44272;SDS011;29964;17.182;-96.766;2023-04-26T01:29:43;2.67;;;1.55;;
44272;SDS011;29964;17.182;-96.766;2023-04-26T01:32:10;7.75;;;1.75;;
44272;SDS011;29964;17.182;-96.766;2023-04-26T01:34:37;5.38;;;2.35;;
44272;SDS011;29964;17.182;-96.766;2023-04-26T01:37:04;2.65;;;1.52;;
44272;SDS011;29964;17.182;-96.766;2023-04-26T01:39:32;2.70;;;1.55;;
44272;SDS011;29964;17.182;-96.766;2023-04-26T01:41:59;4.03;;;1.92;;
44272;SDS011;29964;17.182;-96.766;2023-04-26T01:44:27;1.38;;;1.15;;
44272;SDS011;29964;17.182;-96.766;2023-04-26T01:46:54;2.47;;;1.45;;
44272;SDS011;29964;17.182;-96.766;2023-04-26T01:49:20;1.67;;;1.20;;
44272;SDS011;29964;17.182;-96.766;2023-04-26T01:51:47;2.30;;;1.55;;
44272;SDS011;29964;17.182;-96.766;2023-04-26T01:54:17;1.95;;;1.55;;
44272;SDS011;29964;17.182;-96.766;2023-04-26T01:56:44;2.37;;;1.63;;
44272;SDS011;29964;17.182;-96.766;2023-04-26T01:59:11;2.47;;;1.50;;
44272;SDS011;29964;17.182;-96.766;2023-04-26T02:01:40;2.73;;;1.73;;
44272;SDS011;29964;17.182;-96.766;2023-04-26T02:04:08;3.63;;;2.00;;
44272;SDS011;29964;17.182;-96.766;2023-04-26T02:06:35;4.10;;;2.10;;
44272;SDS011;29964;17.182;-96.766;2023-04-26T02:09:05;5.57;;;1.93;;
44272;SDS011;29964;17.182;-96.766;2023-04-26T02:11:33;3.43;;;2.03;;
44272;SDS011;29964;17.182;-96.766;2023-04-26T02:14:00;2.87;;;1.90;;
44272;SDS011;29964;17.182;-96.766;2023-04-26T02:16:27;2.40;;;1.90;;
44272;SDS011;29964;17.182;-96.766;2023-04-26T02:18:54;3.80;;;2.17;;
44272;SDS011;29964;17.182;-96.766;2023-04-26T02:21:21;13.57;;;2.17;;
44272;SDS011;29964;17.182;-96.766;2023-04-26T02:23:48;9.33;;;2.17;;
44272;SDS011;29964;17.182;-96.766;2023-04-26T02:26:15;3.10;;;1.87;;
44272;SDS011;29964;17.182;-96.766;2023-04-26T02:28:41;1.60;;;1.30;;
44272;SDS011;29964;17.182;-96.766;2023-04-26T02:31:08;3.77;;;2.40;;
44272;SDS011;29964;17.182;-96.766;2023-04-26T02:33:35;3.97;;;1.87;;
44272;SDS011;29964;17.182;-96.766;2023-04-26T02:36:05;3.27;;;2.00;;
44272;SDS011;29964;17.182;-96.766;2023-04-26T02:38:35;4.07;;;2.50;;
44272;SDS011;29964;17.182;-96.766;2023-04-26T02:41:02;3.53;;;2.40;;
44272;SDS011;29964;17.182;-96.766;2023-04-26T02:43:29;9.17;;;2.43;;
44272;SDS011;29964;17.182;-96.766;2023-04-26T02:45:56;2.47;;;1.60;;
44272;SDS011;29964;17.182;-96.766;2023-04-26T02:48:25;7.93;;;2.50;;
44272;SDS011;29964;17.182;-96.766;2023-04-26T02:50:52;4.40;;;2.13;;
44272;SDS011;29964;17.182;-96.766;2023-04-26T02:53:19;3.30;;;2.10;;
44272;SDS011;29964;17.182;-96.766;2023-04-26T02:55:46;5.00;;;2.30;;
44272;SDS011;29964;17.182;-96.766;2023-04-26T02:58:12;3.83;;;2.77;;
44272;SDS011;29964;17.182;-96.766;2023-04-26T03:00:44;4.63;;;2.53;;
44272;SDS011;29964;17.182;-96.766;2023-04-26T03:03:11;6.77;;;2.67;;
44272;SDS011;29964;17.182;-96.766;2023-04-26T03:05:38;5.17;;;3.13;;
44272;SDS011;29964;17.182;-96.766;2023-04-26T03:08:05;8.67;;;3.37;;
44272;SDS011;29964;17.182;-96.766;2023-04-26T03:10:32;5.20;;;2.90;;
44272;SDS011;29964;17.182;-96.766;2023-04-26T03:12:59;8.63;;;3.13;;
44272;SDS011;29964;17.182;-96.766;2023-04-26T03:15:26;5.63;;;3.80;;
44272;SDS011;29964;17.182;-96.766;2023-04-26T03:17:52;5.07;;;3.57;;
44272;SDS011;29964;17.182;-96.766;2023-04-26T03:20:19;7.33;;;3.37;;
44272;SDS011;29964;17.182;-96.766;2023-04-26T03:22:46;4.87;;;3.40;;
44272;SDS011;29964;17.182;-96.766;2023-04-26T03:25:13;5.37;;;3.83;;
44272;SDS011;29964;17.182;-96.766;2023-04-26T03:27:40;5.00;;;3.23;;
44272;SDS011;29964;17.182;-96.766;2023-04-26T03:30:07;5.70;;;3.80;;
44272;SDS011;29964;17.182;-96.766;2023-04-26T03:32:34;5.20;;;4.10;;
44272;SDS011;29964;17.182;-96.766;2023-04-26T03:35:01;9.77;;;3.63;;
44272;SDS011;29964;17.182;-96.766;2023-04-26T03:37:28;5.73;;;3.53;;
44272;SDS011;29964;17.182;-96.766;2023-04-26T03:39:56;6.00;;;3.37;;
44272;SDS011;29964;17.182;-96.766;2023-04-26T03:42:22;5.17;;;3.23;;
44272;SDS011;29964;17.182;-96.766;2023-04-26T03:44:49;4.07;;;3.10;;
44272;SDS011;29964;17.182;-96.766;2023-04-26T03:47:16;7.47;;;3.30;;
44272;SDS011;29964;17.182;-96.766;2023-04-26T03:49:43;4.80;;;2.87;;
44272;SDS011;29964;17.182;-96.766;2023-04-26T03:52:09;4.60;;;2.83;;
44272;SDS011;29964;17.182;-96.766;2023-04-26T03:54:36;4.70;;;2.83;;
44272;SDS011;29964;17.182;-96.766;2023-04-26T03:57:03;5.77;;;3.10;;
44272;SDS011;29964;17.182;-96.766;2023-04-26T03:59:30;4.03;;;2.97;;
44272;SDS011;29964;17.182;-96.766;2023-04-26T04:01:57;4.17;;;2.70;;
44272;SDS011;29964;17.182;-96.766;2023-04-26T04:04:24;7.83;;;2.47;;
44272;SDS011;29964;17.182;-96.766;2023-04-26T04:06:51;3.97;;;2.40;;
44272;SDS011;29964;17.182;-96.766;2023-04-26T04:09:17;3.63;;;2.30;;
44272;SDS011;29964;17.182;-96.766;2023-04-26T04:11:44;3.37;;;2.50;;
44272;SDS011;29964;17.182;-96.766;2023-04-26T04:14:11;6.40;;;3.33;;
44272;SDS011;29964;17.182;-96.766;2023-04-26T04:16:38;4.47;;;2.73;;
44272;SDS011;29964;17.182;-96.766;2023-04-26T04:19:04;7.67;;;3.50;;
44272;SDS011;29964;17.182;-96.766;2023-04-26T04:21:31;6.13;;;3.20;;
44272;SDS011;29964;17.182;-96.766;2023-04-26T04:23:58;4.93;;;3.27;;
44272;SDS011;29964;17.182;-96.766;2023-04-26T04:26:25;3.83;;;3.03;;
44272;SDS011;29964;17.182;-96.766;2023-04-26T04:28:55;5.63;;;3.73;;
44272;SDS011;29964;17.182;-96.766;2023-04-26T04:31:22;7.70;;;3.57;;
44272;SDS011;29964;17.182;-96.766;2023-04-26T04:33:49;9.80;;;3.23;;
44272;SDS011;29964;17.182;-96.766;2023-04-26T04:36:16;6.23;;;3.33;;
44272;SDS011;29964;17.182;-96.766;2023-04-26T04:38:43;5.63;;;3.43;;
44272;SDS011;29964;17.182;-96.766;2023-04-26T04:41:09;4.23;;;3.10;;
44272;SDS011;29964;17.182;-96.766;2023-04-26T04:43:36;4.23;;;2.60;;
44272;SDS011;29964;17.182;-96.766;2023-04-26T04:46:03;4.43;;;2.33;;
44272;SDS011;29964;17.182;-96.766;2023-04-26T04:48:30;3.97;;;2.40;;
44272;SDS011;29964;17.182;-96.766;2023-04-26T04:50:57;3.90;;;2.33;;
44272;SDS011;29964;17.182;-96.766;2023-04-26T04:53:24;13.87;;;3.23;;
44272;SDS011;29964;17.182;-96.766;2023-04-26T04:55:51;8.60;;;3.97;;
44272;SDS011;29964;17.182;-96.766;2023-04-26T04:58:18;4.10;;;2.77;;
44272;SDS011;29964;17.182;-96.766;2023-04-26T05:00:46;4.27;;;2.97;;
44272;SDS011;29964;17.182;-96.766;2023-04-26T05:03:17;7.70;;;3.77;;
44272;SDS011;29964;17.182;-96.766;2023-04-26T05:05:44;4.60;;;2.60;;
44272;SDS011;29964;17.182;-96.766;2023-04-26T05:08:14;3.60;;;2.47;;
44272;SDS011;29964;17.182;-96.766;2023-04-26T05:10:41;4.97;;;3.00;;
44272;SDS011;29964;17.182;-96.766;2023-04-26T05:13:07;6.07;;;3.37;;
44272;SDS011;29964;17.182;-96.766;2023-04-26T05:15:34;20.07;;;2.93;;
44272;SDS011;29964;17.182;-96.766;2023-04-26T05:18:02;3.40;;;2.47;;
44272;SDS011;29964;17.182;-96.766;2023-04-26T05:20:28;2.50;;;1.70;;
44272;SDS011;29964;17.182;-96.766;2023-04-26T05:22:58;3.40;;;2.47;;
44272;SDS011;29964;17.182;-96.766;2023-04-26T05:25:25;5.80;;;3.53;;
44272;SDS011;29964;17.182;-96.766;2023-04-26T05:27:52;6.53;;;3.87;;
44272;SDS011;29964;17.182;-96.766;2023-04-26T05:30:19;19.83;;;4.43;;
44272;SDS011;29964;17.182;-96.766;2023-04-26T05:32:46;4.57;;;3.27;;
44272;SDS011;29964;17.182;-96.766;2023-04-26T05:35:14;6.90;;;3.47;;
44272;SDS011;29964;17.182;-96.766;2023-04-26T05:37:41;11.77;;;3.37;;
44272;SDS011;29964;17.182;-96.766;2023-04-26T05:40:08;6.17;;;3.77;;
44272;SDS011;29964;17.182;-96.766;2023-04-26T05:42:36;5.27;;;2.60;;
44272;SDS011;29964;17.182;-96.766;2023-04-26T05:45:03;12.00;;;3.53;;
44272;SDS011;29964;17.182;-96.766;2023-04-26T05:47:30;5.43;;;3.83;;
44272;SDS011;29964;17.182;-96.766;2023-04-26T05:49:57;5.87;;;3.23;;
44272;SDS011;29964;17.182;-96.766;2023-04-26T05:52:23;2.70;;;2.07;;
44272;SDS011;29964;17.182;-96.766;2023-04-26T05:54:51;17.37;;;2.67;;
44272;SDS011;29964;17.182;-96.766;2023-04-26T05:57:17;9.47;;;2.63;;
44272;SDS011;29964;17.182;-96.766;2023-04-26T05:59:44;6.40;;;3.10;;
44272;SDS011;29964;17.182;-96.766;2023-04-26T06:02:11;4.20;;;3.00;;
44272;SDS011;29964;17.182;-96.766;2023-04-26T06:04:38;5.57;;;3.37;;
44272;SDS011;29964;17.182;-96.766;2023-04-26T06:07:05;3.43;;;2.23;;
44272;SDS011;29964;17.182;-96.766;2023-04-26T06:09:32;6.23;;;3.70;;
44272;SDS011;29964;17.182;-96.766;2023-04-26T06:11:58;6.77;;;3.40;;
44272;SDS011;29964;17.182;-96.766;2023-04-26T06:14:26;15.83;;;5.17;;
44272;SDS011;29964;17.182;-96.766;2023-04-26T06:16:53;7.43;;;4.03;;
44272;SDS011;29964;17.182;-96.766;2023-04-26T06:19:19;22.53;;;6.60;;
44272;SDS011;29964;17.182;-96.766;2023-04-26T06:21:46;18.33;;;6.70;;
44272;SDS011;29964;17.182;-96.766;2023-04-26T06:24:13;14.23;;;6.20;;
44272;SDS011;29964;17.182;-96.766;2023-04-26T06:26:40;6.83;;;3.90;;
44272;SDS011;29964;17.182;-96.766;2023-04-26T06:29:07;13.97;;;5.70;;
44272;SDS011;29964;17.182;-96.766;2023-04-26T06:31:34;19.73;;;6.63;;
44272;SDS011;29964;17.182;-96.766;2023-04-26T06:34:01;16.33;;;6.97;;
44272;SDS011;29964;17.182;-96.766;2023-04-26T06:36:27;15.37;;;8.33;;
44272;SDS011;29964;17.182;-96.766;2023-04-26T06:38:55;12.20;;;5.43;;
44272;SDS011;29964;17.182;-96.766;2023-04-26T06:41:22;13.97;;;6.50;;
44272;SDS011;29964;17.182;-96.766;2023-04-26T06:43:49;9.83;;;4.07;;
44272;SDS011;29964;17.182;-96.766;2023-04-26T06:46:15;7.07;;;3.37;;
44272;SDS011;29964;17.182;-96.766;2023-04-26T06:48:42;7.93;;;3.97;;
44272;SDS011;29964;17.182;-96.766;2023-04-26T06:51:09;13.67;;;8.30;;
44272;SDS011;29964;17.182;-96.766;2023-04-26T06:53:36;21.53;;;5.83;;
44272;SDS011;29964;17.182;-96.766;2023-04-26T06:56:03;10.37;;;7.37;;
44272;SDS011;29964;17.182;-96.766;2023-04-26T06:58:30;13.97;;;8.90;;
44272;SDS011;29964;17.182;-96.766;2023-04-26T07:00:56;17.47;;;9.43;;
44272;SDS011;29964;17.182;-96.766;2023-04-26T07:03:23;18.37;;;8.10;;
44272;SDS011;29964;17.182;-96.766;2023-04-26T07:05:50;12.47;;;5.90;;
44272;SDS011;29964;17.182;-96.766;2023-04-26T07:08:17;8.67;;;5.53;;
44272;SDS011;29964;17.182;-96.766;2023-04-26T07:10:43;8.33;;;5.27;;
44272;SDS011;29964;17.182;-96.766;2023-04-26T07:13:10;8.20;;;3.20;;
44272;SDS011;29964;17.182;-96.766;2023-04-26T07:15:37;4.47;;;3.07;;
44272;SDS011;29964;17.182;-96.766;2023-04-26T07:18:03;6.87;;;3.27;;
44272;SDS011;29964;17.182;-96.766;2023-04-26T07:20:30;5.67;;;3.57;;
44272;SDS011;29964;17.182;-96.766;2023-04-26T07:22:57;5.40;;;3.10;;
44272;SDS011;29964;17.182;-96.766;2023-04-26T07:25:24;5.63;;;3.70;;
44272;SDS011;29964;17.182;-96.766;2023-04-26T07:27:51;11.17;;;3.03;;
44272;SDS011;29964;17.182;-96.766;2023-04-26T07:30:18;2.93;;;2.13;;
44272;SDS011;29964;17.182;-96.766;2023-04-26T07:32:44;2.60;;;1.90;;
44272;SDS011;29964;17.182;-96.766;2023-04-26T07:35:11;3.47;;;2.27;;
44272;SDS011;29964;17.182;-96.766;2023-04-26T07:37:41;2.77;;;2.07;;
44272;SDS011;29964;17.182;-96.766;2023-04-26T07:40:09;3.83;;;2.73;;
44272;SDS011;29964;17.182;-96.766;2023-04-26T07:42:36;2.57;;;2.03;;
44272;SDS011;29964;17.182;-96.766;2023-04-26T07:45:03;2.87;;;2.37;;
44272;SDS011;29964;17.182;-96.766;2023-04-26T07:47:30;3.53;;;2.63;;
44272;SDS011;29964;17.182;-96.766;2023-04-26T07:49:56;5.50;;;2.63;;
44272;SDS011;29964;17.182;-96.766;2023-04-26T07:52:23;11.47;;;2.50;;
44272;SDS011;29964;17.182;-96.766;2023-04-26T07:54:50;1.90;;;1.50;;
44272;SDS011;29964;17.182;-96.766;2023-04-26T07:57:16;6.03;;;3.20;;
44272;SDS011;29964;17.182;-96.766;2023-04-26T07:59:43;2.90;;;2.37;;
44272;SDS011;29964;17.182;-96.766;2023-04-26T08:02:10;4.23;;;2.53;;
44272;SDS011;29964;17.182;-96.766;2023-04-26T08:04:37;6.50;;;3.60;;
44272;SDS011;29964;17.182;-96.766;2023-04-26T08:07:04;5.50;;;3.23;;
44272;SDS011;29964;17.182;-96.766;2023-04-26T08:09:30;4.43;;;3.27;;
44272;SDS011;29964;17.182;-96.766;2023-04-26T08:11:57;3.63;;;2.37;;
44272;SDS011;29964;17.182;-96.766;2023-04-26T08:14:24;7.90;;;2.70;;
44272;SDS011;29964;17.182;-96.766;2023-04-26T08:16:51;2.90;;;2.27;;
44272;SDS011;29964;17.182;-96.766;2023-04-26T08:19:18;1.83;;;1.43;;
44272;SDS011;29964;17.182;-96.766;2023-04-26T08:21:45;4.10;;;2.70;;
44272;SDS011;29964;17.182;-96.766;2023-04-26T08:24:11;3.87;;;2.30;;
44272;SDS011;29964;17.182;-96.766;2023-04-26T08:26:38;2.77;;;2.17;;
44272;SDS011;29964;17.182;-96.766;2023-04-26T08:29:05;3.43;;;2.77;;
44272;SDS011;29964;17.182;-96.766;2023-04-26T08:31:32;4.60;;;2.67;;
44272;SDS011;29964;17.182;-96.766;2023-04-26T08:33:59;18.20;;;4.13;;
44272;SDS011;29964;17.182;-96.766;2023-04-26T08:36:26;7.97;;;3.10;;
44272;SDS011;29964;17.182;-96.766;2023-04-26T08:38:53;2.90;;;2.30;;
44272;SDS011;29964;17.182;-96.766;2023-04-26T08:41:21;3.50;;;2.30;;
44272;SDS011;29964;17.182;-96.766;2023-04-26T08:43:49;4.00;;;3.00;;
44272;SDS011;29964;17.182;-96.766;2023-04-26T08:46:17;6.03;;;3.50;;
44272;SDS011;29964;17.182;-96.766;2023-04-26T08:48:47;4.60;;;3.47;;
44272;SDS011;29964;17.182;-96.766;2023-04-26T08:51:15;4.23;;;2.50;;
44272;SDS011;29964;17.182;-96.766;2023-04-26T08:53:42;15.10;;;3.43;;
44272;SDS011;29964;17.182;-96.766;2023-04-26T08:56:09;3.83;;;2.80;;
44272;SDS011;29964;17.182;-96.766;2023-04-26T08:58:37;9.67;;;3.80;;
44272;SDS011;29964;17.182;-96.766;2023-04-26T09:01:04;4.10;;;2.73;;
44272;SDS011;29964;17.182;-96.766;2023-04-26T09:03:32;4.03;;;2.50;;
44272;SDS011;29964;17.182;-96.766;2023-04-26T09:05:59;5.60;;;2.50;;
44272;SDS011;29964;17.182;-96.766;2023-04-26T09:08:26;5.10;;;3.40;;
44272;SDS011;29964;17.182;-96.766;2023-04-26T09:10:53;2.43;;;1.90;;
44272;SDS011;29964;17.182;-96.766;2023-04-26T09:13:26;3.70;;;2.50;;
44272;SDS011;29964;17.182;-96.766;2023-04-26T09:15:53;3.67;;;2.73;;
44272;SDS011;29964;17.182;-96.766;2023-04-26T09:18:21;7.47;;;3.60;;
44272;SDS011;29964;17.182;-96.766;2023-04-26T09:21:01;4.23;;;3.40;;
44272;SDS011;29964;17.182;-96.766;2023-04-26T09:23:28;4.80;;;2.80;;
44272;SDS011;29964;17.182;-96.766;2023-04-26T09:25:55;5.03;;;3.57;;
44272;SDS011;29964;17.182;-96.766;2023-04-26T09:28:22;4.70;;;3.20;;
44272;SDS011;29964;17.182;-96.766;2023-04-26T09:30:49;5.07;;;2.80;;
44272;SDS011;29964;17.182;-96.766;2023-04-26T09:33:16;7.83;;;3.57;;
44272;SDS011;29964;17.182;-96.766;2023-04-26T09:35:43;4.97;;;3.20;;
44272;SDS011;29964;17.182;-96.766;2023-04-26T09:38:14;6.57;;;4.10;;
44272;SDS011;29964;17.182;-96.766;2023-04-26T09:40:43;4.17;;;2.83;;
44272;SDS011;29964;17.182;-96.766;2023-04-26T09:43:19;7.47;;;4.10;;
44272;SDS011;29964;17.182;-96.766;2023-04-26T09:45:53;3.80;;;2.70;;
44272;SDS011;29964;17.182;-96.766;2023-04-26T09:48:27;4.43;;;2.77;;
44272;SDS011;29964;17.182;-96.766;2023-04-26T09:50:55;5.63;;;3.28;;
44272;SDS011;29964;17.182;-96.766;2023-04-26T09:53:30;6.37;;;3.97;;
44272;SDS011;29964;17.182;-96.766;2023-04-26T09:56:09;5.70;;;3.17;;
44272;SDS011;29964;17.182;-96.766;2023-04-26T09:58:36;13.27;;;3.37;;
44272;SDS011;29964;17.182;-96.766;2023-04-26T10:01:03;5.73;;;3.93;;
44272;SDS011;29964;17.182;-96.766;2023-04-26T10:03:32;3.47;;;2.60;;
44272;SDS011;29964;17.182;-96.766;2023-04-26T10:05:59;4.97;;;2.93;;
44272;SDS011;29964;17.182;-96.766;2023-04-26T10:08:27;5.40;;;2.40;;
44272;SDS011;29964;17.182;-96.766;2023-04-26T10:10:54;4.30;;;3.20;;
44272;SDS011;29964;17.182;-96.766;2023-04-26T10:13:21;7.93;;;2.93;;
44272;SDS011;29964;17.182;-96.766;2023-04-26T10:15:48;9.43;;;3.80;;
44272;SDS011;29964;17.182;-96.766;2023-04-26T10:18:15;6.10;;;3.57;;
44272;SDS011;29964;17.182;-96.766;2023-04-26T10:20:43;3.60;;;2.27;;
44272;SDS011;29964;17.182;-96.766;2023-04-26T10:23:15;14.57;;;3.87;;
44272;SDS011;29964;17.182;-96.766;2023-04-26T10:25:45;10.53;;;4.30;;
44272;SDS011;29964;17.182;-96.766;2023-04-26T10:28:13;6.27;;;3.17;;
44272;SDS011;29964;17.182;-96.766;2023-04-26T10:30:58;5.13;;;3.23;;
44272;SDS011;29964;17.182;-96.766;2023-04-26T10:33:25;4.32;;;3.03;;
44272;SDS011;29964;17.182;-96.766;2023-04-26T10:35:59;3.80;;;2.57;;
44272;SDS011;29964;17.182;-96.766;2023-04-26T10:38:26;3.93;;;2.57;;
44272;SDS011;29964;17.182;-96.766;2023-04-26T10:40:53;5.17;;;3.83;;
44272;SDS011;29964;17.182;-96.766;2023-04-26T10:45:50;6.63;;;3.53;;
44272;SDS011;29964;17.182;-96.766;2023-04-26T10:48:29;5.97;;;3.63;;
44272;SDS011;29964;17.182;-96.766;2023-04-26T10:51:17;4.03;;;3.00;;
44272;SDS011;29964;17.182;-96.766;2023-04-26T10:56:10;4.27;;;3.67;;
44272;SDS011;29964;17.182;-96.766;2023-04-26T10:58:39;5.50;;;4.40;;
44272;SDS011;29964;17.182;-96.766;2023-04-26T11:01:14;9.07;;;3.83;;
44272;SDS011;29964;17.182;-96.766;2023-04-26T11:03:42;5.50;;;3.90;;
44272;SDS011;29964;17.182;-96.766;2023-04-26T11:06:09;4.63;;;3.63;;
44272;SDS011;29964;17.182;-96.766;2023-04-26T11:08:39;4.50;;;3.30;;
44272;SDS011;29964;17.182;-96.766;2023-04-26T11:11:10;9.47;;;4.07;;
44272;SDS011;29964;17.182;-96.766;2023-04-26T11:13:38;5.33;;;3.30;;
44272;SDS011;29964;17.182;-96.766;2023-04-26T11:16:06;7.63;;;4.90;;
44272;SDS011;29964;17.182;-96.766;2023-04-26T11:18:34;3.93;;;2.90;;
44272;SDS011;29964;17.182;-96.766;2023-04-26T11:21:01;5.83;;;3.57;;
44272;SDS011;29964;17.182;-96.766;2023-04-26T11:23:29;5.80;;;3.50;;
44272;SDS011;29964;17.182;-96.766;2023-04-26T11:25:59;4.00;;;3.33;;
44272;SDS011;29964;17.182;-96.766;2023-04-26T11:28:30;13.07;;;4.37;;
44272;SDS011;29964;17.182;-96.766;2023-04-26T11:30:57;4.07;;;3.00;;
44272;SDS011;29964;17.182;-96.766;2023-04-26T11:33:24;5.40;;;3.20;;
44272;SDS011;29964;17.182;-96.766;2023-04-26T11:35:52;6.53;;;3.80;;
44272;SDS011;29964;17.182;-96.766;2023-04-26T11:38:25;6.00;;;3.47;;
44272;SDS011;29964;17.182;-96.766;2023-04-26T11:40:56;7.03;;;4.87;;
44272;SDS011;29964;17.182;-96.766;2023-04-26T11:43:36;9.10;;;3.43;;
44272;SDS011;29964;17.182;-96.766;2023-04-26T11:46:03;7.30;;;4.27;;
44272;SDS011;29964;17.182;-96.766;2023-04-26T11:48:31;8.87;;;4.23;;
44272;SDS011;29964;17.182;-96.766;2023-04-26T11:50:59;3.67;;;2.93;;
44272;SDS011;29964;17.182;-96.766;2023-04-26T11:53:39;3.97;;;3.23;;
44272;SDS011;29964;17.182;-96.766;2023-04-26T11:56:12;5.47;;;3.73;;
44272;SDS011;29964;17.182;-96.766;2023-04-26T11:58:42;8.07;;;3.67;;
44272;SDS011;29964;17.182;-96.766;2023-04-26T12:01:09;9.40;;;5.87;;
44272;SDS011;29964;17.182;-96.766;2023-04-26T12:03:36;8.17;;;4.70;;
44272;SDS011;29964;17.182;-96.766;2023-04-26T12:06:04;13.73;;;7.30;;
44272;SDS011;29964;17.182;-96.766;2023-04-26T12:08:31;12.03;;;6.23;;
44272;SDS011;29964;17.182;-96.766;2023-04-26T12:10:58;12.83;;;7.37;;
44272;SDS011;29964;17.182;-96.766;2023-04-26T12:13:26;6.87;;;4.57;;
44272;SDS011;29964;17.182;-96.766;2023-04-26T12:15:53;5.80;;;3.63;;
44272;SDS011;29964;17.182;-96.766;2023-04-26T12:18:20;16.80;;;5.10;;
44272;SDS011;29964;17.182;-96.766;2023-04-26T12:20:56;5.20;;;3.63;;
44272;SDS011;29964;17.182;-96.766;2023-04-26T12:23:23;14.53;;;5.10;;
44272;SDS011;29964;17.182;-96.766;2023-04-26T12:25:51;4.67;;;3.73;;
44272;SDS011;29964;17.182;-96.766;2023-04-26T12:28:19;3.60;;;2.50;;
44272;SDS011;29964;17.182;-96.766;2023-04-26T12:30:46;11.27;;;4.47;;
44272;SDS011;29964;17.182;-96.766;2023-04-26T12:33:13;11.50;;;5.73;;
44272;SDS011;29964;17.182;-96.766;2023-04-26T12:35:40;4.10;;;3.00;;
44272;SDS011;29964;17.182;-96.766;2023-04-26T12:38:07;7.60;;;4.83;;
44272;SDS011;29964;17.182;-96.766;2023-04-26T12:40:34;5.63;;;2.90;;
44272;SDS011;29964;17.182;-96.766;2023-04-26T12:43:01;8.20;;;3.77;;
44272;SDS011;29964;17.182;-96.766;2023-04-26T12:45:28;7.57;;;3.67;;
44272;SDS011;29964;17.182;-96.766;2023-04-26T12:47:55;5.97;;;4.03;;
44272;SDS011;29964;17.182;-96.766;2023-04-26T12:50:22;10.10;;;4.47;;
44272;SDS011;29964;17.182;-96.766;2023-04-26T12:52:49;16.77;;;3.80;;
44272;SDS011;29964;17.182;-96.766;2023-04-26T12:55:16;5.63;;;4.10;;
44272;SDS011;29964;17.182;-96.766;2023-04-26T12:57:43;8.57;;;5.53;;
44272;SDS011;29964;17.182;-96.766;2023-04-26T13:00:11;10.30;;;5.70;;
44272;SDS011;29964;17.182;-96.766;2023-04-26T13:02:38;17.07;;;5.17;;
44272;SDS011;29964;17.182;-96.766;2023-04-26T13:05:05;9.90;;;4.97;;
44272;SDS011;29964;17.182;-96.766;2023-04-26T13:07:33;6.90;;;4.43;;
44272;SDS011;29964;17.182;-96.766;2023-04-26T13:10:00;18.90;;;6.40;;
44272;SDS011;29964;17.182;-96.766;2023-04-26T13:12:27;11.80;;;5.53;;
44272;SDS011;29964;17.182;-96.766;2023-04-26T13:14:55;11.27;;;4.83;;
44272;SDS011;29964;17.182;-96.766;2023-04-26T13:17:22;7.67;;;4.67;;
44272;SDS011;29964;17.182;-96.766;2023-04-26T13:19:50;9.67;;;5.57;;
44272;SDS011;29964;17.182;-96.766;2023-04-26T13:22:17;10.17;;;5.20;;
44272;SDS011;29964;17.182;-96.766;2023-04-26T13:24:44;7.33;;;4.20;;
44272;SDS011;29964;17.182;-96.766;2023-04-26T13:27:11;5.63;;;3.67;;
44272;SDS011;29964;17.182;-96.766;2023-04-26T13:29:38;5.50;;;3.93;;
44272;SDS011;29964;17.182;-96.766;2023-04-26T13:32:05;4.47;;;3.17;;
44272;SDS011;29964;17.182;-96.766;2023-04-26T13:34:32;4.43;;;3.47;;
44272;SDS011;29964;17.182;-96.766;2023-04-26T13:36:59;5.50;;;3.70;;
44272;SDS011;29964;17.182;-96.766;2023-04-26T13:39:28;6.07;;;3.93;;
44272;SDS011;29964;17.182;-96.766;2023-04-26T13:41:54;6.13;;;3.80;;
44272;SDS011;29964;17.182;-96.766;2023-04-26T13:44:23;3.63;;;3.03;;
44272;SDS011;29964;17.182;-96.766;2023-04-26T13:46:50;4.80;;;3.80;;
44272;SDS011;29964;17.182;-96.766;2023-04-26T13:49:17;4.73;;;3.37;;
44272;SDS011;29964;17.182;-96.766;2023-04-26T13:51:45;6.03;;;3.40;;
44272;SDS011;29964;17.182;-96.766;2023-04-26T13:54:12;3.87;;;3.03;;
44272;SDS011;29964;17.182;-96.766;2023-04-26T13:56:38;3.37;;;2.77;;
44272;SDS011;29964;17.182;-96.766;2023-04-26T13:59:05;3.07;;;2.67;;
44272;SDS011;29964;17.182;-96.766;2023-04-26T14:01:32;4.10;;;3.27;;
44272;SDS011;29964;17.182;-96.766;2023-04-26T14:04:00;9.33;;;3.77;;
44272;SDS011;29964;17.182;-96.766;2023-04-26T14:06:36;6.63;;;4.67;;
44272;SDS011;29964;17.182;-96.766;2023-04-26T14:09:04;7.30;;;3.80;;
44272;SDS011;29964;17.182;-96.766;2023-04-26T14:11:31;14.83;;;4.90;;
44272;SDS011;29964;17.182;-96.766;2023-04-26T14:13:58;7.07;;;4.27;;
44272;SDS011;29964;17.182;-96.766;2023-04-26T14:16:25;9.73;;;4.27;;
44272;SDS011;29964;17.182;-96.766;2023-04-26T14:18:55;7.30;;;4.33;;
44272;SDS011;29964;17.182;-96.766;2023-04-26T14:21:21;5.30;;;4.03;;
44272;SDS011;29964;17.182;-96.766;2023-04-26T14:23:48;16.07;;;5.50;;
44272;SDS011;29964;17.182;-96.766;2023-04-26T14:26:15;5.80;;;3.63;;